Time;durP1;ratioP1;P1;durP2;ratioP2;P2;SDS_P1;SDS_P2;PMS_P1;PMS_P2;Temp;Humidity;BMP_temperature;BMP_pressure;BME280_temperature;BME280_humidity;BME280_pressure;Samples;Min_cycle;Max_cycle;Signal;HPM_P1;HPM_P2
2022/06/07 00:02:10;;;;;;;8.40;5.03;;;;;;;13.25;72.72;100768.38;5016984;28;20089;-66
2022/06/07 00:04:38;;;;;;;7.40;4.97;;;;;;;13.23;73.09;100767.72;5016240;28;20120;-66
2022/06/07 00:07:06;;;;;;;8.02;4.50;;;;;;;13.19;73.19;100762.88;5016335;28;20104;-66
2022/06/07 00:09:33;;;;;;;8.15;5.28;;;;;;;13.23;73.10;100770.41;5016343;28;20053;-66
2022/06/07 00:12:00;;;;;;;8.90;5.03;;;;;;;13.29;72.98;100769.72;5016036;28;20061;-66
2022/06/07 00:14:28;;;;;;;9.43;4.35;;;;;;;13.29;73.04;100764.31;5016910;28;20046;-66
2022/06/07 00:16:54;;;;;;;12.23;4.90;;;;;;;13.30;73.06;100766.00;5016072;28;20489;-66
2022/06/07 00:19:22;;;;;;;7.53;4.93;;;;;;;13.30;72.95;100763.28;5016020;28;20463;-66
2022/06/07 00:21:49;;;;;;;7.95;5.03;;;;;;;13.31;72.79;100756.88;5016155;28;20096;-66
2022/06/07 00:24:15;;;;;;;6.70;5.13;;;;;;;13.29;72.82;100758.94;5015962;28;20450;-66
2022/06/07 00:26:42;;;;;;;7.18;5.00;;;;;;;13.25;72.99;100768.38;5016054;28;20073;-66
2022/06/07 00:29:09;;;;;;;9.15;5.20;;;;;;;13.27;73.04;100758.25;5015877;28;20538;-65
2022/06/07 00:31:40;;;;;;;8.85;5.03;;;;;;;13.23;73.00;100753.41;5015999;28;20478;-67
2022/06/07 00:34:07;;;;;;;9.77;5.95;;;;;;;13.20;73.36;100757.28;5016715;28;20065;-66
2022/06/07 00:36:35;;;;;;;6.60;4.85;;;;;;;13.22;73.07;100755.28;5016586;28;20054;-66
2022/06/07 00:39:03;;;;;;;8.02;5.75;;;;;;;13.21;73.01;100760.81;5015709;28;20081;-67
2022/06/07 00:41:30;;;;;;;9.38;5.15;;;;;;;13.25;73.02;100751.34;5015766;28;20112;-67
2022/06/07 00:44:18;;;;;;;6.95;5.00;;;;;;;13.20;73.16;100753.75;5015848;28;20490;-67
2022/06/07 00:46:46;;;;;;;7.30;5.00;;;;;;;13.11;73.63;100750.25;5015906;28;20152;-67
2022/06/07 00:49:15;;;;;;;6.05;5.07;;;;;;;13.16;73.26;100755.13;4998245;28;20108;-67
2022/06/07 00:51:45;;;;;;;5.25;4.63;;;;;;;13.07;73.50;100757.84;5016353;28;20144;-67
2022/06/07 00:54:24;;;;;;;6.45;5.20;;;;;;;12.95;73.81;100753.88;5016407;28;20153;-67
2022/06/07 00:56:51;;;;;;;6.20;5.28;;;;;;;12.94;74.01;100745.97;5014956;28;20053;-67
2022/06/07 00:59:18;;;;;;;6.47;5.25;;;;;;;12.91;74.13;100744.47;5015426;28;20085;-67
2022/06/07 01:01:45;;;;;;;6.72;5.20;;;;;;;12.96;74.05;100746.63;5015656;28;20526;-67
2022/06/07 01:04:12;;;;;;;8.32;5.88;;;;;;;12.92;74.25;100738.06;5015273;28;20049;-66
2022/06/07 01:12:48;;;;;;;7.35;4.85;;;;;;;12.84;74.26;100740.81;5015197;28;20084;-67
2022/06/07 01:15:15;;;;;;;5.97;5.00;;;;;;;12.86;74.12;100736.91;5015444;28;20109;-66
2022/06/07 01:17:42;;;;;;;7.93;5.57;;;;;;;12.88;74.12;100734.06;5015124;28;20103;-67
2022/06/07 01:20:10;;;;;;;7.55;5.30;;;;;;;12.93;74.32;100725.44;5015919;28;20141;-66
2022/06/07 01:22:36;;;;;;;6.82;5.05;;;;;;;12.93;73.86;100731.66;5015160;28;20136;-66
2022/06/07 01:25:04;;;;;;;7.40;5.65;;;;;;;12.88;74.05;100734.06;5015192;28;20474;-66
2022/06/07 01:27:30;;;;;;;6.28;5.47;;;;;;;12.86;74.36;100723.44;5015414;28;20489;-66
2022/06/07 01:29:57;;;;;;;8.95;5.63;;;;;;;12.86;74.33;100728.00;5015617;28;20111;-67
2022/06/07 01:32:24;;;;;;;7.57;5.43;;;;;;;12.81;74.49;100716.94;5015523;28;20077;-67
2022/06/07 01:34:50;;;;;;;6.70;5.30;;;;;;;12.78;74.69;100720.78;5015574;28;20104;-67
2022/06/07 01:37:19;;;;;;;6.60;5.63;;;;;;;12.71;75.09;100721.66;5015218;28;20081;-67
2022/06/07 01:42:32;;;;;;;5.35;4.72;;;;;;;12.55;75.69;100722.53;5008033;28;20136;-67
2022/06/07 01:44:59;;;;;;;6.88;5.38;;;;;;;12.48;75.99;100717.00;5014198;28;20446;-67
2022/06/07 01:47:31;;;;;;;10.10;5.18;;;;;;;12.52;75.82;100718.34;5014051;28;20156;-67
2022/06/07 01:49:58;;;;;;;8.00;5.45;;;;;;;12.53;75.79;100721.88;5014472;28;20085;-67
2022/06/07 01:52:29;;;;;;;7.28;5.80;;;;;;;12.44;76.28;100717.53;5014266;28;20058;-67
2022/06/07 01:54:56;;;;;;;7.63;5.85;;;;;;;12.49;75.89;100716.00;5014211;28;20141;-67
2022/06/07 01:57:23;;;;;;;5.80;5.07;;;;;;;12.54;75.77;100718.16;5014308;28;20085;-67
2022/06/07 01:59:50;;;;;;;6.15;5.55;;;;;;;12.54;75.87;100721.69;5014069;28;20096;-67
2022/06/07 02:02:18;;;;;;;9.93;5.72;;;;;;;12.52;75.85;100721.03;5014178;28;20089;-67
2022/06/07 02:04:45;;;;;;;11.85;6.13;;;;;;;12.57;75.50;100712.44;5014484;28;20054;-67
2022/06/07 02:07:13;;;;;;;9.15;5.60;;;;;;;12.53;75.57;100708.44;5014815;28;20092;-67
2022/06/07 02:09:42;;;;;;;7.65;5.35;;;;;;;12.53;75.56;100714.66;5014514;28;20054;-67
2022/06/07 02:12:09;;;;;;;8.02;5.38;;;;;;;12.53;75.53;100711.94;5013944;28;20046;-67
2022/06/07 02:14:36;;;;;;;7.00;5.63;;;;;;;12.51;75.28;100718.50;5014303;28;20057;-67
2022/06/07 02:17:03;;;;;;;8.77;5.30;;;;;;;12.54;75.37;100710.09;5013980;28;20056;-67
2022/06/07 02:19:30;;;;;;;7.30;5.88;;;;;;;12.55;75.28;100704.53;5013917;28;20494;-67
2022/06/07 02:21:56;;;;;;;8.38;5.47;;;;;;;12.56;75.28;100700.84;5014577;28;20053;-67
2022/06/07 02:24:23;;;;;;;7.75;5.90;;;;;;;12.52;75.48;100698.66;5014728;28;20136;-67
2022/06/07 02:27:00;;;;;;;12.00;5.93;;;;;;;12.48;75.49;100691.94;5013921;28;20129;-67
2022/06/07 02:29:33;;;;;;;12.07;6.22;;;;;;;12.49;75.34;100697.16;5013814;28;20137;-67
2022/06/07 02:32:23;;;;;;;9.25;6.25;;;;;;;12.47;75.50;100690.28;5014188;28;20116;-67
2022/06/07 02:34:53;;;;;;;9.00;5.90;;;;;;;12.45;75.56;100695.81;5013939;28;20408;-67
2022/06/07 02:37:21;;;;;;;7.03;5.57;;;;;;;12.45;75.71;100700.34;5013861;28;20121;-67
2022/06/07 02:39:48;;;;;;;7.70;5.78;;;;;;;12.41;75.49;100706.09;5014409;28;20081;-67
2022/06/07 02:42:16;;;;;;;7.15;5.82;;;;;;;12.45;75.73;100711.97;5014354;28;20104;-67
2022/06/07 02:44:43;;;;;;;7.72;6.00;;;;;;;12.41;75.75;100710.63;5014926;28;20140;-66
2022/06/07 02:47:09;;;;;;;7.88;6.13;;;;;;;12.37;75.86;100715.50;5014369;28;20510;-68
2022/06/07 02:49:36;;;;;;;7.80;6.57;;;;;;;12.32;76.12;100717.91;5013514;28;20145;-66
2022/06/07 02:52:03;;;;;;;10.90;6.22;;;;;;;12.15;76.60;100717.09;5013697;28;20136;-68
2022/06/07 02:54:36;;;;;;;9.68;6.30;;;;;;;12.27;76.38;100714.88;5013964;28;20141;-67
2022/06/07 02:57:03;;;;;;;12.20;6.40;;;;;;;12.26;76.50;100715.06;5014151;28;20074;-67
2022/06/07 02:59:30;;;;;;;13.00;6.38;;;;;;;12.21;76.72;100718.25;5014243;28;20474;-67
2022/06/07 03:01:57;;;;;;;8.15;6.10;;;;;;;12.22;76.63;100725.31;5014430;28;20136;-67
2022/06/07 03:04:23;;;;;;;8.38;6.07;;;;;;;12.20;76.59;100719.25;5014044;28;20050;-67
2022/06/07 03:06:50;;;;;;;8.68;5.68;;;;;;;12.19;76.44;100706.00;5013831;28;20058;-67
2022/06/07 03:09:17;;;;;;;9.77;6.00;;;;;;;12.18;76.62;100715.91;5013727;28;20085;-67
2022/06/07 03:11:43;;;;;;;8.93;6.25;;;;;;;12.18;76.48;100715.91;5013876;28;20145;-66
2022/06/07 03:14:10;;;;;;;7.95;5.95;;;;;;;12.17;76.30;100712.38;5014133;28;20053;-66
2022/06/07 03:16:37;;;;;;;6.80;5.68;;;;;;;12.24;76.18;100709.00;5013653;28;20089;-67
2022/06/07 03:19:05;;;;;;;6.95;5.57;;;;;;;12.22;75.97;100709.19;5014093;28;20500;-67
2022/06/07 03:21:31;;;;;;;7.32;5.20;;;;;;;12.27;75.73;100706.78;5016996;28;20058;-66
2022/06/07 03:23:58;;;;;;;7.93;5.93;;;;;;;12.24;75.58;100709.00;5017745;28;20461;-66
2022/06/07 03:26:24;;;;;;;8.82;5.28;;;;;;;12.33;75.07;100699.91;5017709;28;20136;-67
2022/06/07 03:28:51;;;;;;;8.80;5.55;;;;;;;12.39;74.54;100708.13;5018496;28;20506;-67
2022/06/07 03:31:18;;;;;;;9.35;4.90;;;;;;;12.46;73.93;100712.81;5017726;28;20136;-67
2022/06/07 03:33:47;;;;;;;8.45;4.97;;;;;;;12.54;73.41;100715.47;5016766;28;20069;-68
2022/06/07 03:36:16;;;;;;;10.55;5.30;;;;;;;12.62;72.92;100712.75;5017169;28;20467;-66
2022/06/07 03:38:43;;;;;;;6.15;4.47;;;;;;;12.59;72.58;100719.34;5016654;28;20089;-66
2022/06/07 03:41:16;;;;;;;5.97;4.68;;;;;;;12.59;72.61;100718.47;5016957;28;20088;-66
2022/06/07 03:43:43;;;;;;;9.30;6.47;;;;;;;12.62;72.30;100729.72;5017074;28;20152;-66
2022/06/07 03:46:13;;;;;;;6.75;4.65;;;;;;;12.60;72.30;100728.25;5017030;28;20057;-66
2022/06/07 03:48:42;;;;;;;8.88;4.68;;;;;;;12.57;72.22;100726.72;5017105;28;20050;-67
2022/06/07 03:51:10;;;;;;;8.75;4.82;;;;;;;12.62;72.14;100734.28;5016890;28;20073;-67
2022/06/07 03:53:37;;;;;;;7.07;4.15;;;;;;;12.64;71.77;100727.72;5017024;28;20490;-66
2022/06/07 03:56:08;;;;;;;7.05;4.15;;;;;;;12.64;71.62;100726.88;5017549;28;20050;-65
2022/06/07 03:58:38;;;;;;;4.10;3.70;;;;;;;12.65;71.47;100724.00;5016594;28;20085;-66
2022/06/07 04:01:07;;;;;;;7.07;4.32;;;;;;;12.65;71.46;100732.06;5017367;28;20057;-66
2022/06/07 04:03:42;;;;;;;6.15;3.97;;;;;;;12.66;71.53;100730.25;5016346;28;20049;-66
2022/06/07 04:06:26;;;;;;;7.22;3.90;;;;;;;12.60;71.36;100731.78;5017430;28;20049;-66
2022/06/07 04:08:53;;;;;;;9.00;3.67;;;;;;;12.56;71.21;100726.91;5016826;28;20489;-66
2022/06/07 04:11:22;;;;;;;6.80;3.60;;;;;;;12.56;71.08;100725.06;5016582;28;20077;-67
2022/06/07 04:13:50;;;;;;;6.72;4.18;;;;;;;12.53;70.81;100721.88;5016335;28;20092;-66
2022/06/07 04:16:19;;;;;;;8.73;4.50;;;;;;;12.52;71.09;100725.56;5016539;28;20093;-67
2022/06/07 04:18:46;;;;;;;6.03;3.30;;;;;;;12.54;70.76;100731.63;5016026;28;20050;-66
2022/06/07 04:21:14;;;;;;;9.65;3.88;;;;;;;12.55;70.58;100727.91;5016051;28;20136;-66
2022/06/07 04:23:41;;;;;;;9.00;3.72;;;;;;;12.55;70.63;100717.97;5016217;28;20504;-66
2022/06/07 04:26:21;;;;;;;7.72;4.45;;;;;;;12.51;70.81;100727.41;5016178;28;20058;-66
2022/06/07 04:28:48;;;;;;;6.75;3.72;;;;;;;12.55;70.28;100727.91;5016616;28;20089;-66
2022/06/07 04:31:21;;;;;;;8.05;3.60;;;;;;;12.55;69.98;100731.44;5016338;28;20076;-67
2022/06/07 04:33:48;;;;;;;6.88;3.30;;;;;;;12.51;70.24;100738.19;5016002;28;20081;-67
2022/06/07 04:36:18;;;;;;;4.20;3.17;;;;;;;12.53;70.12;100738.88;5016473;28;20462;-65
2022/06/07 04:38:46;;;;;;;5.22;3.03;;;;;;;12.54;69.69;100737.00;5016403;28;20050;-66
2022/06/07 04:41:15;;;;;;;9.52;3.40;;;;;;;12.54;69.53;100731.63;5016043;28;20471;-66
2022/06/07 04:43:48;;;;;;;7.03;3.42;;;;;;;12.54;69.72;100729.78;5015699;28;20414;-66
2022/06/07 04:46:15;;;;;;;6.20;3.38;;;;;;;12.56;69.46;100729.63;5015299;28;20104;-66
2022/06/07 04:48:44;;;;;;;6.00;2.92;;;;;;;12.58;69.32;100736.47;5015806;28;20546;-67
2022/06/07 04:51:14;;;;;;;7.90;3.20;;;;;;;12.64;68.62;100737.66;5016138;28;20063;-67
2022/06/07 04:53:46;;;;;;;6.25;3.13;;;;;;;12.68;68.10;100736.28;5016028;28;20061;-65
2022/06/07 04:56:20;;;;;;;5.43;3.13;;;;;;;12.74;67.59;100732.06;5015532;28;20064;-66
2022/06/07 04:58:46;;;;;;;4.28;2.78;;;;;;;12.82;67.57;100737.44;5015726;28;20132;-65
2022/06/07 05:01:15;;;;;;;7.53;3.20;;;;;;;12.78;67.05;100736.94;5015578;28;20050;-66
2022/06/07 05:03:42;;;;;;;3.45;2.45;;;;;;;12.90;66.52;100737.41;5015619;28;20050;-66
2022/06/07 05:06:39;;;;;;;5.78;2.63;;;;;;;12.88;66.59;100734.06;5015381;28;20072;-66
2022/06/07 05:09:17;;;;;;;3.83;2.17;;;;;;;12.81;66.74;100731.22;5016250;28;20346;-66
2022/06/07 05:11:49;;;;;;;6.15;2.50;;;;;;;12.89;66.26;100730.34;5015409;28;20053;-67
2022/06/07 05:14:16;;;;;;;7.32;2.35;;;;;;;12.96;65.90;100741.25;5015503;28;20096;-66
2022/06/07 05:16:43;;;;;;;4.25;2.38;;;;;;;12.96;66.04;100738.56;5015172;28;20141;-66
2022/06/07 05:19:11;;;;;;;4.70;2.85;;;;;;;12.97;65.78;100730.31;5014881;28;20074;-66
2022/06/07 05:21:38;;;;;;;7.95;3.03;;;;;;;13.03;65.66;100734.97;5016115;28;20109;-66
2022/06/07 05:24:05;;;;;;;4.28;2.50;;;;;;;13.04;65.23;100733.13;5014984;28;20057;-67
2022/06/07 05:26:38;;;;;;;7.95;2.80;;;;;;;13.06;65.42;100734.63;5014697;28;20050;-66
2022/06/07 05:29:06;;;;;;;6.10;2.80;;;;;;;13.10;64.85;100737.81;5014787;28;20057;-66
2022/06/07 05:31:37;;;;;;;6.10;2.35;;;;;;;13.16;64.71;100742.50;5016275;28;20054;-65
2022/06/07 05:34:05;;;;;;;4.30;2.03;;;;;;;13.19;64.61;100747.53;5014853;28;20054;-65
2022/06/07 05:36:31;;;;;;;4.53;2.40;;;;;;;13.22;64.54;100747.19;5014797;28;20144;-65
2022/06/07 05:38:58;;;;;;;13.35;2.35;;;;;;;13.29;64.35;100741.94;5015332;28;20449;-65
2022/06/07 05:41:29;;;;;;;8.23;2.40;;;;;;;13.32;64.31;100745.09;5014765;28;20144;-65
2022/06/07 05:43:56;;;;;;;11.07;3.42;;;;;;;13.24;63.91;100755.06;5013756;28;20511;-65
2022/06/07 05:46:23;;;;;;;3.97;2.30;;;;;;;13.32;63.02;100747.81;5015521;28;20455;-65
2022/06/07 05:48:49;;;;;;;6.75;2.03;;;;;;;13.48;62.61;100756.78;5014640;28;20077;-65
2022/06/07 05:51:16;;;;;;;4.35;1.95;;;;;;;13.50;62.05;100754.78;5014719;28;20081;-65
2022/06/07 05:53:43;;;;;;;6.00;2.05;;;;;;;13.65;61.16;100758.34;5014505;28;20081;-65
2022/06/07 05:56:13;;;;;;;4.38;1.83;;;;;;;13.70;60.46;100758.66;5015241;28;20065;-65
2022/06/07 05:58:40;;;;;;;4.50;1.70;;;;;;;13.96;59.75;100760.19;5014563;28;20052;-65
2022/06/07 06:01:07;;;;;;;4.43;1.80;;;;;;;14.08;58.98;100761.44;5014734;28;20471;-65
2022/06/07 06:03:35;;;;;;;7.88;2.30;;;;;;;14.15;57.69;100759.69;5014443;28;20085;-65
2022/06/07 06:06:03;;;;;;;6.10;1.63;;;;;;;14.11;57.52;100761.03;5014453;28;20060;-65
2022/06/07 06:11:18;;;;;;;7.20;4.72;;;;;;;14.28;56.55;100759.88;5014282;28;20077;-65
2022/06/07 06:13:45;;;;;;;6.90;2.93;;;;;;;14.30;56.48;100760.53;5015293;28;20487;-66
2022/06/07 06:16:18;;;;;;;14.00;5.40;;;;;;;14.46;55.85;100766.78;5014325;28;20441;-67
2022/06/07 06:18:49;;;;;;;7.70;2.67;;;;;;;14.73;55.00;100763.47;5014337;28;20050;-66
2022/06/07 06:21:18;;;;;;;4.40;1.58;;;;;;;14.98;54.08;100764.03;5014288;28;20053;-66
2022/06/07 06:23:44;;;;;;;4.32;1.35;;;;;;;15.18;53.36;100752.63;5014438;28;20080;-66
2022/06/07 06:26:14;;;;;;;5.03;1.70;;;;;;;15.39;52.58;100765.31;5014494;28;20062;-65
2022/06/07 06:28:42;;;;;;;6.90;1.67;;;;;;;15.53;52.10;100764.44;5014671;28;20478;-65
2022/06/07 06:31:11;;;;;;;7.78;2.08;;;;;;;15.57;51.95;100763.06;5015264;28;20054;-66
2022/06/07 06:33:44;;;;;;;4.43;1.80;;;;;;;15.73;50.88;100759.28;5014774;28;20401;-66
2022/06/07 06:36:14;;;;;;;3.83;1.20;;;;;;;15.71;50.47;100777.56;5015065;28;20053;-66
2022/06/07 06:38:43;;;;;;;7.32;1.40;;;;;;;15.53;50.69;100780.66;5014706;28;20042;-67
2022/06/07 06:41:16;;;;;;;4.55;1.23;;;;;;;15.69;50.19;100768.81;5014225;28;20050;-66
2022/06/07 06:43:43;;;;;;;4.43;1.63;;;;;;;15.74;50.21;100769.06;5013951;28;20517;-65
2022/06/07 06:46:13;;;;;;;4.55;1.42;;;;;;;15.76;49.85;100768.88;5014528;28;20050;-65
2022/06/07 06:48:43;;;;;;;2.72;1.10;;;;;;;15.91;49.29;100769.63;5014179;28;20137;-65
2022/06/07 06:51:12;;;;;;;4.43;1.45;;;;;;;16.05;49.13;100766.00;5014543;28;20387;-66
2022/06/07 06:53:41;;;;;;;8.13;1.67;;;;;;;16.34;48.06;100769.59;5014367;28;20133;-66
2022/06/07 06:56:11;;;;;;;3.22;1.55;;;;;;;16.47;47.16;100766.13;4999261;28;20548;-66
2022/06/07 06:58:38;;;;;;;5.75;1.60;;;;;;;16.74;46.53;100762.56;5018687;28;20129;-66
2022/06/07 07:01:08;;;;;;;3.17;1.60;;;;;;;16.98;45.57;100769.34;5018058;28;20449;-66
2022/06/07 07:03:36;;;;;;;3.10;1.10;;;;;;;17.39;44.55;100763.09;5017477;28;20056;-66
2022/06/07 07:06:05;;;;;;;3.85;1.10;;;;;;;17.62;44.06;100759.19;5017805;28;20093;-66
2022/06/07 07:08:33;;;;;;;2.83;1.27;;;;;;;17.64;43.67;100757.91;5017925;28;20085;-67
2022/06/07 07:11:13;;;;;;;5.28;0.95;;;;;;;18.23;42.38;100759.03;5018146;28;20557;-65
2022/06/07 07:13:41;;;;;;;4.40;1.10;;;;;;;18.51;41.32;100766.94;5017689;28;20061;-64
2022/06/07 07:16:11;;;;;;;3.20;1.48;;;;;;;18.43;40.93;100762.56;5017819;28;20056;-65
2022/06/07 07:18:38;;;;;;;4.45;1.02;;;;;;;19.19;39.76;100769.28;5017508;28;20050;-66
2022/06/07 07:21:08;;;;;;;5.00;0.95;;;;;;;19.43;39.16;100776.69;5018017;28;20046;-66
2022/06/07 07:23:35;;;;;;;4.82;1.00;;;;;;;19.43;38.32;100767.69;5018426;28;20082;-65
2022/06/07 07:26:09;;;;;;;2.80;1.10;;;;;;;19.61;38.38;100764.22;5017984;28;20061;-65
2022/06/07 07:28:38;;;;;;;2.47;0.90;;;;;;;19.38;37.88;100760.19;5018024;28;20080;-66
2022/06/07 07:31:07;;;;;;;3.08;1.00;;;;;;;19.43;38.54;100748.66;5018024;28;20050;-66
2022/06/07 07:33:34;;;;;;;3.30;1.10;;;;;;;19.61;38.30;100759.63;5017736;28;20552;-66
2022/06/07 07:36:04;;;;;;;3.95;1.02;;;;;;;20.13;36.96;100754.84;5017721;28;20409;-66
2022/06/07 07:38:30;;;;;;;9.23;1.10;;;;;;;20.77;36.15;100752.81;5017827;28;20513;-65
2022/06/07 07:40:57;;;;;;;2.08;1.10;;;;;;;20.35;36.03;100752.59;5017775;28;20046;-66
2022/06/07 07:43:24;;;;;;;4.25;1.08;;;;;;;20.01;35.43;100753.94;5017540;28;20585;-67
2022/06/07 07:45:52;;;;;;;1.73;0.68;;;;;;;20.16;34.24;100753.59;5019100;28;20133;-66
2022/06/07 07:48:19;;;;;;;2.45;0.80;;;;;;;20.05;34.73;100757.03;5008978;28;20137;-65
2022/06/07 07:50:46;;;;;;;2.33;0.80;;;;;;;20.83;33.10;100761.94;5017628;28;20516;-65
2022/06/07 07:53:14;;;;;;;4.45;1.10;;;;;;;21.13;33.69;100754.69;5017697;28;20054;-67
2022/06/07 07:55:49;;;;;;;4.95;1.42;;;;;;;21.20;33.23;100761.97;5000128;28;20054;-66
2022/06/07 07:58:17;;;;;;;2.40;0.88;;;;;;;21.35;33.76;100762.38;5016927;28;20114;-66
2022/06/07 08:00:46;;;;;;;7.38;1.25;;;;;;;21.88;32.97;100749.88;5017579;28;20535;-65
2022/06/07 08:03:13;;;;;;;4.22;0.90;;;;;;;21.72;32.70;100751.34;5017375;28;20073;-66
2022/06/07 08:05:41;;;;;;;2.67;0.90;;;;;;;21.77;32.70;100746.00;5017232;28;20109;-66
2022/06/07 08:08:08;;;;;;;5.45;0.95;;;;;;;22.17;32.09;100746.22;5016826;28;20092;-66
2022/06/07 08:10:35;;;;;;;2.20;0.90;;;;;;;22.42;32.15;100742.41;5017024;28;20140;-67
2022/06/07 08:13:02;;;;;;;2.15;0.93;;;;;;;22.18;31.32;100749.78;5017226;28;20129;-67
2022/06/07 08:15:32;;;;;;;1.70;0.77;;;;;;;22.71;30.81;100741.47;5017335;28;20140;-67
2022/06/07 08:18:04;;;;;;;3.45;0.90;;;;;;;21.95;31.19;100737.78;5016341;28;20068;-66
2022/06/07 08:20:36;;;;;;;4.90;0.73;;;;;;;22.01;31.14;100731.38;5016729;28;20402;-66
2022/06/07 08:23:07;;;;;;;1.42;0.80;;;;;;;22.39;30.88;100734.69;5016495;28;20133;-66
2022/06/07 08:25:35;;;;;;;2.03;1.10;;;;;;;22.91;30.84;100734.75;5016776;28;20054;-66
2022/06/07 08:28:04;;;;;;;6.00;1.10;;;;;;;22.35;32.02;100725.31;5018148;28;20107;-66
2022/06/07 08:30:32;;;;;;;4.97;0.95;;;;;;;22.51;31.87;100727.34;5016417;28;20057;-67
2022/06/07 08:32:59;;;;;;;2.83;1.10;;;;;;;22.88;30.43;100729.75;5016971;28;20065;-67
2022/06/07 08:38:11;;;;;;;2.92;1.20;;;;;;;23.69;29.03;100725.88;5016662;28;20490;-67
2022/06/07 08:40:44;;;;;;;3.10;0.90;;;;;;;24.00;28.19;100725.59;5016598;28;20498;-68
2022/06/07 08:43:18;;;;;;;3.30;0.70;;;;;;;23.63;29.39;100723.28;5016154;28;20061;-67
2022/06/07 08:45:47;;;;;;;4.88;1.13;;;;;;;23.07;30.33;100717.59;5016280;28;20054;-67
2022/06/07 08:48:20;;;;;;;4.20;1.20;;;;;;;23.23;30.08;100716.84;5015874;28;20050;-65
2022/06/07 08:50:55;;;;;;;4.25;1.08;;;;;;;22.69;31.36;100710.78;5016143;28;20170;-67
2022/06/07 08:53:30;;;;;;;3.63;0.93;;;;;;;23.01;30.97;100707.59;5016341;28;20080;-66
2022/06/07 08:56:00;;;;;;;4.63;1.02;;;;;;;22.54;31.58;100711.31;5015992;28;20517;-66
2022/06/07 08:58:36;;;;;;;6.63;0.80;;;;;;;22.23;31.85;100701.56;5015445;28;20541;-65
2022/06/07 09:01:37;;;;;;;1.40;0.70;;;;;;;22.82;31.09;100695.19;5015718;28;20347;-66
2022/06/07 09:04:17;;;;;;;4.63;0.98;;;;;;;22.22;32.14;100705.38;5015571;28;20140;-66
2022/06/07 09:06:56;;;;;;;7.23;1.70;;;;;;;22.49;31.83;100694.78;5015417;28;20084;-65
2022/06/07 09:12:09;;;;;;;10.88;2.38;;;;;;;21.43;33.73;100693.00;5015350;28;20281;-66
2022/06/07 09:12:22;;;;;;;5.47;1.40;;;;;;;21.62;33.09;100683.66;5015131;28;20085;-66
2022/06/07 09:14:59;;;;;;;5.60;1.85;;;;;;;21.22;34.08;100692.47;5015183;28;20056;-67
2022/06/07 09:17:29;;;;;;;3.15;1.50;;;;;;;20.99;34.08;100682.25;5015096;28;20520;-65
2022/06/07 09:19:56;;;;;;;3.97;1.25;;;;;;;20.80;34.40;100686.91;5014978;28;20088;-66
2022/06/07 09:22:29;;;;;;;5.82;1.70;;;;;;;20.37;35.70;100692.41;5015852;28;20049;-66
2022/06/07 09:25:03;;;;;;;3.92;1.35;;;;;;;20.57;35.86;100684.03;5015645;28;20092;-67
2022/06/07 09:27:32;;;;;;;4.43;1.70;;;;;;;19.54;37.27;100684.53;5015270;28;20085;-67
2022/06/07 09:30:08;;;;;;;5.30;1.45;;;;;;;19.91;37.19;100683.63;5015170;28;20140;-67
2022/06/07 09:32:38;;;;;;;2.50;1.40;;;;;;;20.40;36.67;100681.09;5014504;28;20142;-67
2022/06/07 09:35:18;;;;;;;7.25;1.40;;;;;;;20.38;36.20;100672.25;5014591;28;20046;-67
2022/06/07 09:37:58;;;;;;;2.72;1.02;;;;;;;20.74;34.92;100654.28;5014856;28;20133;-67
2022/06/07 09:40:34;;;;;;;7.40;1.30;;;;;;;21.25;34.60;100655.69;5014742;28;20104;-67
2022/06/07 09:43:17;;;;;;;3.80;1.20;;;;;;;21.35;34.94;100654.03;5014441;28;20097;-67
2022/06/07 09:45:44;;;;;;;4.22;1.70;;;;;;;21.22;35.28;100651.53;5014578;28;20046;-67
2022/06/07 09:48:40;;;;;;;4.80;1.27;;;;;;;20.83;34.57;100637.34;5014341;28;20049;-67
2022/06/07 09:51:15;;;;;;;4.47;1.45;;;;;;;20.71;34.09;100641.09;5014548;28;20060;-67
2022/06/07 09:53:45;;;;;;;6.60;2.67;;;;;;;20.33;35.02;100633.97;5014463;28;20543;-68
2022/06/07 09:56:47;;;;;;;1.63;1.13;;;;;;;20.85;34.48;100639.88;5014958;28;20073;-67
2022/06/07 09:59:33;;;;;;;3.22;1.35;;;;;;;20.97;34.62;100634.44;5014936;28;20077;-66
2022/06/07 10:02:44;;;;;;;3.75;1.20;;;;;;;20.92;34.55;100633.25;5014478;28;20073;-67
2022/06/07 10:05:48;;;;;;;4.45;1.83;;;;;;;20.38;35.40;100629.50;4952936;29;20503;-66
2022/06/07 10:08:39;;;;;;;6.22;2.08;;;;;;;20.05;35.61;100629.06;4954164;29;20085;-66
2022/06/07 10:11:12;;;;;;;9.40;1.15;;;;;;;19.99;35.79;100630.78;4954107;29;20551;-68
2022/06/07 10:14:02;;;;;;;5.47;1.30;;;;;;;19.88;36.77;100635.06;4954297;29;20074;-67
2022/06/07 10:17:01;;;;;;;4.43;1.48;;;;;;;20.28;35.97;100621.06;4953984;29;20066;-67
2022/06/07 10:19:47;;;;;;;5.30;1.48;;;;;;;20.33;35.34;100621.19;4953838;29;20221;-66
2022/06/07 10:22:33;;;;;;;4.20;0.93;;;;;;;20.57;34.63;100605.00;4953585;29;20256;-67
2022/06/07 10:25:15;;;;;;;4.45;1.52;;;;;;;20.21;35.03;100609.38;4954413;29;20147;-66
2022/06/07 10:27:50;;;;;;;10.50;1.42;;;;;;;20.17;34.64;100617.16;4953882;29;20145;-67
2022/06/07 10:30:22;;;;;;;3.15;1.30;;;;;;;20.23;34.98;100609.16;4958165;28;20094;-68
2022/06/07 10:33:23;;;;;;;4.55;1.10;;;;;;;20.53;32.65;100603.81;4960832;28;20047;-67
2022/06/07 10:35:57;;;;;;;3.17;1.20;;;;;;;20.22;33.89;100602.88;4960170;28;20139;-67
2022/06/07 10:38:49;;;;;;;8.80;2.65;;;;;;;20.25;34.59;100605.16;4970241;28;20401;-67
2022/06/07 10:41:41;;;;;;;2.58;0.93;;;;;;;20.87;33.13;100611.31;5021082;28;20092;-68
2022/06/07 10:44:30;;;;;;;4.80;1.33;;;;;;;21.33;32.19;100609.81;5017960;28;20127;-67
2022/06/07 10:47:00;;;;;;;6.30;0.93;;;;;;;21.67;32.12;100610.09;5003886;28;20046;-66
2022/06/07 10:49:35;;;;;;;2.30;0.80;;;;;;;21.80;31.56;100604.41;5021042;28;20140;-68
2022/06/07 10:52:22;;;;;;;5.00;0.98;;;;;;;21.48;32.48;100619.44;5020792;28;20144;-66
2022/06/07 10:55:03;;;;;;;5.03;0.90;;;;;;;21.33;31.96;100607.06;5021263;28;20474;-67
2022/06/07 10:57:45;;;;;;;3.33;1.13;;;;;;;21.04;32.86;100600.59;5020999;28;20058;-66
2022/06/07 11:00:33;;;;;;;4.30;1.00;;;;;;;21.01;32.94;100586.53;5020360;28;20136;-67
2022/06/07 11:03:18;;;;;;;4.30;1.10;;;;;;;21.18;32.87;100590.31;5020683;28;20096;-67
2022/06/07 11:11:33;;;;;;;3.05;1.20;;;;;;;20.42;34.55;100599.97;5020887;28;20137;-67
2022/06/07 11:14:12;;;;;;;1.90;0.90;;;;;;;20.21;34.66;100598.47;5021360;28;20137;-67
2022/06/07 11:16:59;;;;;;;2.50;0.80;;;;;;;20.13;34.20;100594.16;5020649;28;20054;-66
2022/06/07 11:19:26;;;;;;;2.45;1.20;;;;;;;20.36;33.86;100598.09;5020222;28;20049;-67
2022/06/07 11:22:00;;;;;;;2.17;1.00;;;;;;;20.23;34.73;100596.38;5020372;28;20054;-66
2022/06/07 11:24:31;;;;;;;3.83;1.00;;;;;;;20.35;34.71;100591.84;5020275;28;20093;-66
2022/06/07 11:27:24;;;;;;;6.88;0.80;;;;;;;20.38;33.83;100598.69;5020589;28;20116;-66
2022/06/07 11:30:34;;;;;;;8.02;1.23;;;;;;;19.98;34.12;100601.06;5017137;28;20077;-66
2022/06/07 11:33:01;;;;;;;2.65;1.25;;;;;;;19.55;34.73;100601.84;5011988;28;20077;-67
2022/06/07 11:35:48;;;;;;;2.88;0.93;;;;;;;19.48;35.48;100599.16;5020089;28;20050;-67
2022/06/07 11:38:17;;;;;;;5.45;1.42;;;;;;;19.58;35.95;100604.13;5020105;28;20152;-65
2022/06/07 11:40:46;;;;;;;6.07;1.30;;;;;;;19.66;36.06;100601.13;5018969;28;20104;-66
2022/06/07 11:43:49;;;;;;;6.60;1.65;;;;;;;19.31;36.22;100592.63;5016794;28;20145;-66
2022/06/07 11:46:24;;;;;;;5.95;2.13;;;;;;;19.04;37.19;100594.72;5017059;28;20053;-67
2022/06/07 11:49:17;;;;;;;6.00;2.45;;;;;;;19.11;37.08;100598.22;5016790;28;20046;-67
2022/06/07 11:52:02;;;;;;;8.10;1.77;;;;;;;18.95;37.64;100597.69;5016680;28;20053;-68
2022/06/07 11:54:33;;;;;;;5.82;2.20;;;;;;;18.90;38.25;100594.75;5017327;28;20468;-67
2022/06/07 11:57:17;;;;;;;4.95;2.22;;;;;;;18.91;38.48;100596.41;5016675;28;20053;-67
2022/06/07 11:59:50;;;;;;;8.48;1.52;;;;;;;18.97;37.20;100590.16;5016824;28;20096;-67
2022/06/07 12:02:17;;;;;;;2.05;1.00;;;;;;;19.19;36.16;100589.78;5016993;28;20462;-67
2022/06/07 12:04:43;;;;;;;7.22;1.60;;;;;;;19.40;36.40;100586.69;5016801;28;20050;-68
2022/06/07 12:07:17;;;;;;;4.22;1.30;;;;;;;19.58;35.13;100583.19;5016765;28;20060;-67